Mayville, ND (58257)

7:34 PM CDT on July 30, 2014 (GMT -0500)
Grand Forks International (KGFK) Elev 843 ft | 47.95 °N, 97.18 °W | Change Station

Current weather conditions updated 41 minutes ago

Partly Cloudy
Partly Cloudy
79 °F
Feels Like 79 °F
N
7
Wind Variable Wind from North

Tomorrow is forecast to be Warmer than today.

Today
High -- | Low -- °F
--% Chance of Precip.
Yesterday
High -- | Low -- °F
Precip. -- in
6:04 AM 9:05 PM
Waxing Crescent, 14% visible
Pressure 30.04 in
Visibility 10.0 miles
Clouds Few 7500 ft
Dew Point 55 °F
Humidity 44%
Rainfall 0.00 in
Snow Depth Not available.
UV 1 out of 12
Pollen 7.60 out of 12
Air Quality Not available.
Flu Activity Not available.
METAR KGFK 302353Z 36006KT 10SM FEW075 26/13 A3004

More Conditions Fewer Conditions

Pressure 30.04 in
Visibility 10.0 miles
Clouds Few 7500 ft
Dew Point 55 °F
Humidity 44%
Rainfall 0.00 in
Snow Depth Not available.
UV 1 out of 12
Pollen 7.60 out of 12
Air Quality Not available.
Flu Activity Not available.
METAR KGFK 302353Z 36006KT 10SM FEW075 26/13 A3004

More Conditions Fewer Conditions

10-Day Weather Forecast

Almanac

Astronomy

Jul. 30, 2014 Rise Set
Actual Time 6:04 AM CDT 9:05 PM CDT
Civil Twilight 5:28 AM CDT 9:42 PM CDT
Nautical Twilight 4:41 AM CDT 10:28 PM CDT
Astronomical Twilight 3:44 AM CDT 11:25 PM CDT
Moon 9:56 AM CDT (7/30) 10:28 PM CDT (7/30)
Length of Visible Light 16h 13m
Length of Day
15h 01m
Tomorrow will be 2m 37s shorter.
Waxing Crescent, 14% of the Moon is Illuminated
Today
Waxing Crescent
Aug 3
First Quarter
Aug 10
Full
Aug 17
Last Quarter
Aug 25
New

Today's Extremes

State Highs State Lows

Community

WunderPhotos

Upload Photos

1,739,259 photos uploaded!

Nearby

Snow Depth

Station Depth Elevation
No new snow has been reported.

Earthquake Activity

City Distance Mag. Time & Date
No recent earthquake activity has been reported nearby.
Minimum magnitude displayed is 2.5.

Coastal Water Temperatures

Place Temperature
No Stations Reporting

Nearby Weather Stations

There are no personal weather stations in this area.